Etusivu
METAR-TAF:

METAR-TAF

Lentoasemat :

Tunis, Tunisia

Leveyspiiri: 36-50N, Pituuspiiri: 010-14E, korkeus merenpinnasta: 3 m

Tämänhetkinen sää

Tämä raportti tehtiin 22 minuuttia sitten, kello 00.30 UTC
Tuuli 3 kn lounaasta, vaihdellen etelän/lounaan ja lännen välillä
Lämpötila 10°C
Kosteus 87%
Ilmanpaine 1025 hPa
Näkyvyys 10 km tai enemmän
Muutamia pilviä 2300 ft:n korkeudessa

METAR: DTTA 300030Z 23003KT 200V260 9999 FEW023 10/08 Q1025 NOSIG

Aika: 01:52 (00:52 UTC)

Sääennuste

Tämä raportti tehtiin 1 tunti ja 48 minuuttia sitten, kello 23.04 UTC
Ennuste voimassa 30. päivästä klo 00 UTC - 30. päivään klo 24 UTC
Tuuli 4 kn lännestä/luoteesta
Näkyvyys 10 km tai enemmän
Muutamia pilviä 2300 ft:n korkeudessa
Tulossa
30. päivästä klo 10 UTC - 30. päivään klo 12 UTC
Tuuli 14 kn pohjoisesta
Tulossa
30. päivästä klo 16 UTC - 30. päivään klo 18 UTC
Tuuli 10 kn koillisesta

TAF: DTTA 292304Z 3000/3024 29004KT 9999 FEW023 BECMG 3010/3012 35014KT BECMG 3016/3018 05010KT

Säähavainnot ja -ennusteet yli 4000 lentoasemalta (METAR- ja TAF-raportit).

Käytössä olevat sääasemat on merkitty karttaan keltaisilla ja punaisilla pisteillä.

Aseta hiiri pisteen päälle nähdäksesi sääaseman nimen.

Klikkaa sitten nähdäksesi säähavainnot ja -ennusteet.

Kartan vaihtaminen: klikkaa mustalla rastilla varustettuja vihreitä pisteitä, niin voit zoomata sisään; viivalla varustettua vihreää pistettä, niin voit zoomata ulos tai vihreitä nuolia, niin pääset viereisille kartoille.


METAR-TAF: